sensor_id;sensor_type;location;lat;lon;timestamp;P1;durP1;ratioP1;P2;durP2;ratioP2
61785;SDS011;47692;53.714;11.372;2023-12-07T00:01:09;102.03;;;30.25;;
61785;SDS011;47692;53.714;11.372;2023-12-07T00:03:34;101.53;;;31.25;;
61785;SDS011;47692;53.714;11.372;2023-12-07T00:06:00;77.07;;;28.92;;
61785;SDS011;47692;53.714;11.372;2023-12-07T00:08:25;81.50;;;26.30;;
61785;SDS011;47692;53.714;11.372;2023-12-07T00:10:50;89.40;;;29.83;;
61785;SDS011;47692;53.714;11.372;2023-12-07T00:13:16;77.82;;;27.10;;
61785;SDS011;47692;53.714;11.372;2023-12-07T00:15:41;91.38;;;28.48;;
61785;SDS011;47692;53.714;11.372;2023-12-07T00:18:07;86.95;;;28.25;;
61785;SDS011;47692;53.714;11.372;2023-12-07T00:20:32;82.13;;;28.55;;
61785;SDS011;47692;53.714;11.372;2023-12-07T00:22:58;91.13;;;31.40;;
61785;SDS011;47692;53.714;11.372;2023-12-07T00:25:23;74.70;;;25.10;;
61785;SDS011;47692;53.714;11.372;2023-12-07T00:27:48;86.88;;;27.73;;
61785;SDS011;47692;53.714;11.372;2023-12-07T00:30:14;105.45;;;30.42;;
61785;SDS011;47692;53.714;11.372;2023-12-07T00:32:40;99.72;;;29.55;;
61785;SDS011;47692;53.714;11.372;2023-12-07T00:35:08;101.28;;;29.38;;
61785;SDS011;47692;53.714;11.372;2023-12-07T00:37:34;102.47;;;30.23;;
61785;SDS011;47692;53.714;11.372;2023-12-07T00:39:59;86.88;;;31.70;;
61785;SDS011;47692;53.714;11.372;2023-12-07T00:42:26;89.68;;;31.13;;
61785;SDS011;47692;53.714;11.372;2023-12-07T00:44:51;94.07;;;29.67;;
61785;SDS011;47692;53.714;11.372;2023-12-07T00:47:16;93.95;;;30.02;;
61785;SDS011;47692;53.714;11.372;2023-12-07T00:49:41;94.40;;;30.35;;
61785;SDS011;47692;53.714;11.372;2023-12-07T00:52:07;89.47;;;30.55;;
61785;SDS011;47692;53.714;11.372;2023-12-07T00:54:33;95.38;;;29.17;;
61785;SDS011;47692;53.714;11.372;2023-12-07T00:56:58;96.43;;;29.77;;
61785;SDS011;47692;53.714;11.372;2023-12-07T00:59:24;100.07;;;32.28;;
61785;SDS011;47692;53.714;11.372;2023-12-07T01:01:50;99.75;;;30.85;;
61785;SDS011;47692;53.714;11.372;2023-12-07T01:04:15;97.90;;;28.40;;
61785;SDS011;47692;53.714;11.372;2023-12-07T01:06:41;90.40;;;26.67;;
61785;SDS011;47692;53.714;11.372;2023-12-07T01:09:06;113.18;;;33.80;;
61785;SDS011;47692;53.714;11.372;2023-12-07T01:11:32;95.53;;;27.92;;
61785;SDS011;47692;53.714;11.372;2023-12-07T01:13:57;114.40;;;32.38;;
61785;SDS011;47692;53.714;11.372;2023-12-07T01:16:22;87.00;;;27.98;;
61785;SDS011;47692;53.714;11.372;2023-12-07T01:18:49;86.78;;;27.67;;
61785;SDS011;47692;53.714;11.372;2023-12-07T01:21:15;98.28;;;29.70;;
61785;SDS011;47692;53.714;11.372;2023-12-07T01:23:40;101.60;;;28.25;;
61785;SDS011;47692;53.714;11.372;2023-12-07T01:26:05;116.10;;;30.65;;
61785;SDS011;47692;53.714;11.372;2023-12-07T01:28:32;100.20;;;29.80;;
61785;SDS011;47692;53.714;11.372;2023-12-07T01:30:57;88.68;;;28.30;;
61785;SDS011;47692;53.714;11.372;2023-12-07T01:33:22;92.70;;;28.15;;
61785;SDS011;47692;53.714;11.372;2023-12-07T01:35:48;89.20;;;29.83;;
61785;SDS011;47692;53.714;11.372;2023-12-07T01:38:13;113.05;;;31.77;;
61785;SDS011;47692;53.714;11.372;2023-12-07T01:40:39;110.85;;;29.65;;
61785;SDS011;47692;53.714;11.372;2023-12-07T01:43:04;105.32;;;29.42;;
61785;SDS011;47692;53.714;11.372;2023-12-07T01:45:29;104.15;;;30.42;;
61785;SDS011;47692;53.714;11.372;2023-12-07T01:47:55;104.82;;;31.92;;
61785;SDS011;47692;53.714;11.372;2023-12-07T01:50:21;86.93;;;29.55;;
61785;SDS011;47692;53.714;11.372;2023-12-07T01:52:49;94.50;;;30.08;;
61785;SDS011;47692;53.714;11.372;2023-12-07T01:55:19;98.70;;;29.20;;
61785;SDS011;47692;53.714;11.372;2023-12-07T01:57:46;96.95;;;28.80;;
61785;SDS011;47692;53.714;11.372;2023-12-07T02:00:15;92.55;;;29.42;;
61785;SDS011;47692;53.714;11.372;2023-12-07T02:02:41;102.05;;;31.00;;
61785;SDS011;47692;53.714;11.372;2023-12-07T02:05:09;86.53;;;27.10;;
61785;SDS011;47692;53.714;11.372;2023-12-07T02:07:34;97.15;;;29.13;;
61785;SDS011;47692;53.714;11.372;2023-12-07T02:10:00;96.65;;;30.02;;
61785;SDS011;47692;53.714;11.372;2023-12-07T02:12:25;103.35;;;31.48;;
61785;SDS011;47692;53.714;11.372;2023-12-07T02:14:54;97.53;;;29.35;;
61785;SDS011;47692;53.714;11.372;2023-12-07T02:17:26;134.18;;;30.92;;
61785;SDS011;47692;53.714;11.372;2023-12-07T02:20:11;105.75;;;31.67;;
61785;SDS011;47692;53.714;11.372;2023-12-07T02:22:43;109.85;;;29.85;;
61785;SDS011;47692;53.714;11.372;2023-12-07T02:25:14;96.25;;;28.92;;
61785;SDS011;47692;53.714;11.372;2023-12-07T02:27:44;98.03;;;27.13;;
61785;SDS011;47692;53.714;11.372;2023-12-07T02:30:13;98.10;;;28.42;;
61785;SDS011;47692;53.714;11.372;2023-12-07T02:32:39;100.70;;;29.25;;
61785;SDS011;47692;53.714;11.372;2023-12-07T02:35:06;107.25;;;29.08;;
61785;SDS011;47692;53.714;11.372;2023-12-07T02:37:34;107.47;;;28.23;;
61785;SDS011;47692;53.714;11.372;2023-12-07T02:40:05;132.27;;;31.05;;
61785;SDS011;47692;53.714;11.372;2023-12-07T02:42:35;94.35;;;29.13;;
61785;SDS011;47692;53.714;11.372;2023-12-07T02:45:02;108.72;;;28.77;;
61785;SDS011;47692;53.714;11.372;2023-12-07T02:47:28;99.03;;;28.35;;
61785;SDS011;47692;53.714;11.372;2023-12-07T02:49:54;95.03;;;29.02;;
61785;SDS011;47692;53.714;11.372;2023-12-07T02:52:19;118.60;;;30.58;;
61785;SDS011;47692;53.714;11.372;2023-12-07T02:54:45;115.32;;;30.80;;
61785;SDS011;47692;53.714;11.372;2023-12-07T02:57:10;99.88;;;29.52;;
61785;SDS011;47692;53.714;11.372;2023-12-07T02:59:35;104.68;;;29.02;;
61785;SDS011;47692;53.714;11.372;2023-12-07T03:02:01;97.53;;;26.70;;
61785;SDS011;47692;53.714;11.372;2023-12-07T03:04:26;101.72;;;29.65;;
61785;SDS011;47692;53.714;11.372;2023-12-07T03:06:51;105.25;;;28.23;;
61785;SDS011;47692;53.714;11.372;2023-12-07T03:09:17;104.30;;;28.88;;
61785;SDS011;47692;53.714;11.372;2023-12-07T03:11:42;102.03;;;30.15;;
61785;SDS011;47692;53.714;11.372;2023-12-07T03:14:07;110.95;;;31.15;;
61785;SDS011;47692;53.714;11.372;2023-12-07T03:16:33;103.85;;;28.33;;
61785;SDS011;47692;53.714;11.372;2023-12-07T03:19:00;121.22;;;30.50;;
61785;SDS011;47692;53.714;11.372;2023-12-07T03:21:26;105.78;;;30.17;;
61785;SDS011;47692;53.714;11.372;2023-12-07T03:23:51;106.18;;;29.73;;
61785;SDS011;47692;53.714;11.372;2023-12-07T03:26:16;107.90;;;29.85;;
61785;SDS011;47692;53.714;11.372;2023-12-07T03:28:42;118.38;;;31.48;;
61785;SDS011;47692;53.714;11.372;2023-12-07T03:31:07;132.27;;;33.15;;
61785;SDS011;47692;53.714;11.372;2023-12-07T03:33:32;130.00;;;31.73;;
61785;SDS011;47692;53.714;11.372;2023-12-07T03:35:58;120.60;;;30.90;;
61785;SDS011;47692;53.714;11.372;2023-12-07T03:38:23;141.05;;;32.05;;
61785;SDS011;47692;53.714;11.372;2023-12-07T03:40:48;126.18;;;30.88;;
61785;SDS011;47692;53.714;11.372;2023-12-07T03:43:14;118.75;;;31.67;;
61785;SDS011;47692;53.714;11.372;2023-12-07T03:45:41;114.57;;;30.80;;
61785;SDS011;47692;53.714;11.372;2023-12-07T03:48:06;114.25;;;30.58;;
61785;SDS011;47692;53.714;11.372;2023-12-07T03:50:32;122.03;;;31.40;;
61785;SDS011;47692;53.714;11.372;2023-12-07T03:52:57;123.75;;;31.83;;
61785;SDS011;47692;53.714;11.372;2023-12-07T03:55:22;115.88;;;31.40;;
61785;SDS011;47692;53.714;11.372;2023-12-07T03:57:47;110.43;;;28.70;;
61785;SDS011;47692;53.714;11.372;2023-12-07T04:00:13;117.88;;;34.58;;
61785;SDS011;47692;53.714;11.372;2023-12-07T04:02:38;125.75;;;31.63;;
61785;SDS011;47692;53.714;11.372;2023-12-07T04:05:04;114.00;;;31.85;;
61785;SDS011;47692;53.714;11.372;2023-12-07T04:07:29;125.03;;;32.53;;
61785;SDS011;47692;53.714;11.372;2023-12-07T04:09:55;155.75;;;35.63;;
61785;SDS011;47692;53.714;11.372;2023-12-07T04:12:22;109.35;;;30.75;;
61785;SDS011;47692;53.714;11.372;2023-12-07T04:14:48;122.40;;;33.50;;
61785;SDS011;47692;53.714;11.372;2023-12-07T04:17:14;122.47;;;30.80;;
61785;SDS011;47692;53.714;11.372;2023-12-07T04:19:40;121.80;;;31.92;;
61785;SDS011;47692;53.714;11.372;2023-12-07T04:22:05;128.20;;;30.17;;
61785;SDS011;47692;53.714;11.372;2023-12-07T04:24:30;124.78;;;33.67;;
61785;SDS011;47692;53.714;11.372;2023-12-07T04:26:55;130.07;;;36.55;;
61785;SDS011;47692;53.714;11.372;2023-12-07T04:29:21;135.23;;;35.92;;
61785;SDS011;47692;53.714;11.372;2023-12-07T04:31:46;126.55;;;35.97;;
61785;SDS011;47692;53.714;11.372;2023-12-07T04:34:11;125.28;;;33.22;;
61785;SDS011;47692;53.714;11.372;2023-12-07T04:36:37;123.65;;;32.78;;
61785;SDS011;47692;53.714;11.372;2023-12-07T04:39:02;114.95;;;32.03;;
61785;SDS011;47692;53.714;11.372;2023-12-07T04:41:28;107.20;;;33.72;;
61785;SDS011;47692;53.714;11.372;2023-12-07T04:43:53;116.47;;;33.63;;
61785;SDS011;47692;53.714;11.372;2023-12-07T04:46:19;110.20;;;36.42;;
61785;SDS011;47692;53.714;11.372;2023-12-07T04:48:44;117.68;;;33.00;;
61785;SDS011;47692;53.714;11.372;2023-12-07T04:51:10;111.75;;;32.00;;
61785;SDS011;47692;53.714;11.372;2023-12-07T04:53:35;102.15;;;31.17;;
61785;SDS011;47692;53.714;11.372;2023-12-07T04:56:00;98.10;;;30.77;;
61785;SDS011;47692;53.714;11.372;2023-12-07T04:58:26;95.35;;;31.17;;
61785;SDS011;47692;53.714;11.372;2023-12-07T05:00:51;100.97;;;30.95;;
61785;SDS011;47692;53.714;11.372;2023-12-07T05:03:16;100.50;;;31.70;;
61785;SDS011;47692;53.714;11.372;2023-12-07T05:05:41;107.85;;;29.40;;
61785;SDS011;47692;53.714;11.372;2023-12-07T05:08:07;97.07;;;29.02;;
61785;SDS011;47692;53.714;11.372;2023-12-07T05:10:33;104.45;;;32.25;;
61785;SDS011;47692;53.714;11.372;2023-12-07T05:12:58;102.00;;;30.73;;
61785;SDS011;47692;53.714;11.372;2023-12-07T05:15:24;106.38;;;31.88;;
61785;SDS011;47692;53.714;11.372;2023-12-07T05:17:49;102.72;;;29.90;;
61785;SDS011;47692;53.714;11.372;2023-12-07T05:20:15;107.28;;;29.02;;
61785;SDS011;47692;53.714;11.372;2023-12-07T05:22:40;112.45;;;32.55;;
61785;SDS011;47692;53.714;11.372;2023-12-07T05:25:05;103.70;;;29.42;;
61785;SDS011;47692;53.714;11.372;2023-12-07T05:27:31;97.05;;;29.75;;
61785;SDS011;47692;53.714;11.372;2023-12-07T05:29:57;91.60;;;27.98;;
61785;SDS011;47692;53.714;11.372;2023-12-07T05:32:22;86.85;;;29.67;;
61785;SDS011;47692;53.714;11.372;2023-12-07T05:34:47;104.88;;;31.60;;
61785;SDS011;47692;53.714;11.372;2023-12-07T05:37:13;104.55;;;29.67;;
61785;SDS011;47692;53.714;11.372;2023-12-07T05:39:38;95.05;;;27.88;;
61785;SDS011;47692;53.714;11.372;2023-12-07T05:42:04;112.35;;;31.98;;
61785;SDS011;47692;53.714;11.372;2023-12-07T05:44:31;101.93;;;28.55;;
61785;SDS011;47692;53.714;11.372;2023-12-07T05:46:56;99.43;;;30.17;;
61785;SDS011;47692;53.714;11.372;2023-12-07T05:49:22;92.25;;;28.42;;
61785;SDS011;47692;53.714;11.372;2023-12-07T05:51:48;113.15;;;31.25;;
61785;SDS011;47692;53.714;11.372;2023-12-07T05:54:14;110.97;;;29.45;;
61785;SDS011;47692;53.714;11.372;2023-12-07T05:56:39;101.78;;;30.02;;
61785;SDS011;47692;53.714;11.372;2023-12-07T05:59:05;113.10;;;31.30;;
61785;SDS011;47692;53.714;11.372;2023-12-07T06:01:31;92.65;;;26.48;;
61785;SDS011;47692;53.714;11.372;2023-12-07T06:03:57;98.60;;;29.67;;
61785;SDS011;47692;53.714;11.372;2023-12-07T06:06:22;110.93;;;30.00;;
61785;SDS011;47692;53.714;11.372;2023-12-07T06:08:48;101.78;;;29.70;;
61785;SDS011;47692;53.714;11.372;2023-12-07T06:11:13;111.97;;;29.65;;
61785;SDS011;47692;53.714;11.372;2023-12-07T06:13:39;108.40;;;28.70;;
61785;SDS011;47692;53.714;11.372;2023-12-07T06:16:04;101.03;;;29.60;;
61785;SDS011;47692;53.714;11.372;2023-12-07T06:18:30;102.63;;;32.58;;
61785;SDS011;47692;53.714;11.372;2023-12-07T06:20:55;122.20;;;30.35;;
61785;SDS011;47692;53.714;11.372;2023-12-07T06:23:20;118.63;;;31.88;;
61785;SDS011;47692;53.714;11.372;2023-12-07T06:25:46;102.90;;;27.70;;
61785;SDS011;47692;53.714;11.372;2023-12-07T06:28:12;114.45;;;32.40;;
61785;SDS011;47692;53.714;11.372;2023-12-07T06:30:37;115.72;;;32.15;;
61785;SDS011;47692;53.714;11.372;2023-12-07T06:33:03;96.35;;;28.98;;
61785;SDS011;47692;53.714;11.372;2023-12-07T06:35:28;90.80;;;25.85;;
61785;SDS011;47692;53.714;11.372;2023-12-07T06:37:54;94.22;;;27.00;;
61785;SDS011;47692;53.714;11.372;2023-12-07T06:40:19;100.30;;;29.42;;
61785;SDS011;47692;53.714;11.372;2023-12-07T06:42:45;90.75;;;27.40;;
61785;SDS011;47692;53.714;11.372;2023-12-07T06:45:10;102.68;;;28.38;;
61785;SDS011;47692;53.714;11.372;2023-12-07T06:47:39;88.10;;;26.98;;
61785;SDS011;47692;53.714;11.372;2023-12-07T06:50:05;106.53;;;27.67;;
61785;SDS011;47692;53.714;11.372;2023-12-07T06:52:33;98.88;;;27.92;;
61785;SDS011;47692;53.714;11.372;2023-12-07T06:54:59;102.13;;;27.33;;
61785;SDS011;47692;53.714;11.372;2023-12-07T06:57:24;104.30;;;28.83;;
61785;SDS011;47692;53.714;11.372;2023-12-07T06:59:50;104.70;;;27.83;;
61785;SDS011;47692;53.714;11.372;2023-12-07T07:02:15;112.07;;;28.88;;
61785;SDS011;47692;53.714;11.372;2023-12-07T07:04:40;100.30;;;27.73;;
61785;SDS011;47692;53.714;11.372;2023-12-07T07:07:06;98.30;;;28.77;;
61785;SDS011;47692;53.714;11.372;2023-12-07T07:09:31;100.47;;;26.63;;
61785;SDS011;47692;53.714;11.372;2023-12-07T07:11:57;102.43;;;26.08;;
61785;SDS011;47692;53.714;11.372;2023-12-07T07:14:22;97.20;;;25.63;;
61785;SDS011;47692;53.714;11.372;2023-12-07T07:16:47;91.63;;;24.70;;
61785;SDS011;47692;53.714;11.372;2023-12-07T07:19:13;94.43;;;25.92;;
61785;SDS011;47692;53.714;11.372;2023-12-07T07:21:38;92.43;;;26.33;;
61785;SDS011;47692;53.714;11.372;2023-12-07T07:24:04;97.05;;;25.77;;
61785;SDS011;47692;53.714;11.372;2023-12-07T07:26:30;105.80;;;26.17;;
61785;SDS011;47692;53.714;11.372;2023-12-07T07:28:55;104.82;;;28.65;;
61785;SDS011;47692;53.714;11.372;2023-12-07T07:31:20;86.10;;;23.52;;
61785;SDS011;47692;53.714;11.372;2023-12-07T07:33:46;95.55;;;26.83;;
61785;SDS011;47692;53.714;11.372;2023-12-07T07:36:14;89.70;;;25.25;;
61785;SDS011;47692;53.714;11.372;2023-12-07T07:38:40;105.47;;;26.90;;
61785;SDS011;47692;53.714;11.372;2023-12-07T07:41:05;102.60;;;29.42;;
61785;SDS011;47692;53.714;11.372;2023-12-07T07:43:31;95.07;;;26.67;;
61785;SDS011;47692;53.714;11.372;2023-12-07T07:45:56;106.63;;;29.58;;
61785;SDS011;47692;53.714;11.372;2023-12-07T07:48:21;91.03;;;25.48;;
61785;SDS011;47692;53.714;11.372;2023-12-07T07:50:47;93.72;;;28.27;;
61785;SDS011;47692;53.714;11.372;2023-12-07T07:53:12;96.18;;;26.27;;
61785;SDS011;47692;53.714;11.372;2023-12-07T07:55:38;104.05;;;28.70;;
61785;SDS011;47692;53.714;11.372;2023-12-07T07:58:03;108.15;;;29.85;;
61785;SDS011;47692;53.714;11.372;2023-12-07T08:00:28;94.38;;;27.02;;
61785;SDS011;47692;53.714;11.372;2023-12-07T08:02:53;92.53;;;27.30;;
61785;SDS011;47692;53.714;11.372;2023-12-07T08:05:19;91.57;;;27.60;;
61785;SDS011;47692;53.714;11.372;2023-12-07T08:07:44;95.38;;;26.52;;
61785;SDS011;47692;53.714;11.372;2023-12-07T08:10:09;103.70;;;27.27;;
61785;SDS011;47692;53.714;11.372;2023-12-07T08:12:36;103.03;;;27.27;;
61785;SDS011;47692;53.714;11.372;2023-12-07T08:15:05;97.60;;;28.38;;
61785;SDS011;47692;53.714;11.372;2023-12-07T08:17:35;91.68;;;26.88;;
61785;SDS011;47692;53.714;11.372;2023-12-07T08:20:01;96.28;;;25.63;;
61785;SDS011;47692;53.714;11.372;2023-12-07T08:22:27;99.80;;;28.55;;
61785;SDS011;47692;53.714;11.372;2023-12-07T08:24:52;93.85;;;28.63;;
61785;SDS011;47692;53.714;11.372;2023-12-07T08:27:18;101.28;;;26.92;;
61785;SDS011;47692;53.714;11.372;2023-12-07T08:29:43;105.43;;;25.58;;
61785;SDS011;47692;53.714;11.372;2023-12-07T08:32:08;117.10;;;28.50;;
61785;SDS011;47692;53.714;11.372;2023-12-07T08:34:34;107.10;;;25.38;;
61785;SDS011;47692;53.714;11.372;2023-12-07T08:36:59;114.20;;;28.02;;
61785;SDS011;47692;53.714;11.372;2023-12-07T08:39:24;116.15;;;31.00;;
61785;SDS011;47692;53.714;11.372;2023-12-07T08:41:50;99.63;;;27.00;;
61785;SDS011;47692;53.714;11.372;2023-12-07T08:44:16;102.38;;;27.42;;
61785;SDS011;47692;53.714;11.372;2023-12-07T08:46:42;113.40;;;29.45;;
61785;SDS011;47692;53.714;11.372;2023-12-07T08:49:09;107.22;;;29.20;;
61785;SDS011;47692;53.714;11.372;2023-12-07T08:51:35;111.78;;;27.75;;
61785;SDS011;47692;53.714;11.372;2023-12-07T08:54:01;109.88;;;28.77;;
61785;SDS011;47692;53.714;11.372;2023-12-07T08:56:26;111.07;;;30.35;;
61785;SDS011;47692;53.714;11.372;2023-12-07T08:58:52;105.82;;;27.73;;
61785;SDS011;47692;53.714;11.372;2023-12-07T09:01:17;110.53;;;29.10;;
61785;SDS011;47692;53.714;11.372;2023-12-07T09:03:42;98.43;;;26.65;;
61785;SDS011;47692;53.714;11.372;2023-12-07T09:06:08;111.32;;;26.75;;
61785;SDS011;47692;53.714;11.372;2023-12-07T09:08:33;106.10;;;26.35;;
61785;SDS011;47692;53.714;11.372;2023-12-07T09:10:59;96.13;;;24.90;;
61785;SDS011;47692;53.714;11.372;2023-12-07T09:13:24;100.78;;;25.98;;
61785;SDS011;47692;53.714;11.372;2023-12-07T09:15:49;113.07;;;28.00;;
61785;SDS011;47692;53.714;11.372;2023-12-07T09:18:15;97.93;;;25.92;;
61785;SDS011;47692;53.714;11.372;2023-12-07T09:20:40;103.50;;;27.00;;
61785;SDS011;47692;53.714;11.372;2023-12-07T09:23:11;99.32;;;26.75;;
61785;SDS011;47692;53.714;11.372;2023-12-07T09:25:40;116.70;;;27.50;;
61785;SDS011;47692;53.714;11.372;2023-12-07T09:28:05;84.80;;;25.00;;
61785;SDS011;47692;53.714;11.372;2023-12-07T09:30:31;107.38;;;25.08;;
61785;SDS011;47692;53.714;11.372;2023-12-07T09:32:58;96.22;;;25.40;;
61785;SDS011;47692;53.714;11.372;2023-12-07T09:35:24;98.57;;;25.38;;
61785;SDS011;47692;53.714;11.372;2023-12-07T09:37:49;104.20;;;25.92;;
61785;SDS011;47692;53.714;11.372;2023-12-07T09:40:15;99.55;;;26.15;;
61785;SDS011;47692;53.714;11.372;2023-12-07T09:42:42;95.13;;;24.63;;
61785;SDS011;47692;53.714;11.372;2023-12-07T09:45:08;91.95;;;26.02;;
61785;SDS011;47692;53.714;11.372;2023-12-07T09:47:33;79.55;;;23.08;;
61785;SDS011;47692;53.714;11.372;2023-12-07T09:50:00;89.22;;;24.88;;
61785;SDS011;47692;53.714;11.372;2023-12-07T09:52:26;106.75;;;26.10;;
61785;SDS011;47692;53.714;11.372;2023-12-07T09:54:52;89.07;;;25.13;;
61785;SDS011;47692;53.714;11.372;2023-12-07T09:57:19;105.75;;;26.60;;
61785;SDS011;47692;53.714;11.372;2023-12-07T09:59:46;96.13;;;24.98;;
61785;SDS011;47692;53.714;11.372;2023-12-07T10:02:11;86.45;;;24.98;;
61785;SDS011;47692;53.714;11.372;2023-12-07T10:04:38;93.45;;;24.00;;
61785;SDS011;47692;53.714;11.372;2023-12-07T10:07:04;92.30;;;24.92;;
61785;SDS011;47692;53.714;11.372;2023-12-07T10:09:33;104.90;;;26.58;;
61785;SDS011;47692;53.714;11.372;2023-12-07T10:12:03;97.22;;;26.77;;
61785;SDS011;47692;53.714;11.372;2023-12-07T10:14:29;88.00;;;24.50;;
61785;SDS011;47692;53.714;11.372;2023-12-07T10:16:55;92.70;;;24.30;;
61785;SDS011;47692;53.714;11.372;2023-12-07T10:19:21;89.78;;;24.75;;
61785;SDS011;47692;53.714;11.372;2023-12-07T10:21:53;83.85;;;24.00;;
61785;SDS011;47692;53.714;11.372;2023-12-07T10:24:20;112.05;;;27.52;;
61785;SDS011;47692;53.714;11.372;2023-12-07T10:26:47;95.68;;;26.40;;
61785;SDS011;47692;53.714;11.372;2023-12-07T10:29:13;101.70;;;24.30;;
61785;SDS011;47692;53.714;11.372;2023-12-07T10:31:38;111.50;;;28.08;;
61785;SDS011;47692;53.714;11.372;2023-12-07T10:34:04;83.97;;;24.95;;
61785;SDS011;47692;53.714;11.372;2023-12-07T10:36:30;104.78;;;29.75;;
61785;SDS011;47692;53.714;11.372;2023-12-07T10:38:55;94.88;;;26.92;;
61785;SDS011;47692;53.714;11.372;2023-12-07T10:41:22;84.22;;;24.35;;
61785;SDS011;47692;53.714;11.372;2023-12-07T10:43:51;90.97;;;26.48;;
61785;SDS011;47692;53.714;11.372;2023-12-07T10:46:19;101.80;;;25.52;;
61785;SDS011;47692;53.714;11.372;2023-12-07T10:48:45;93.13;;;25.50;;
61785;SDS011;47692;53.714;11.372;2023-12-07T10:51:25;100.60;;;26.55;;
61785;SDS011;47692;53.714;11.372;2023-12-07T10:53:58;109.25;;;26.05;;
61785;SDS011;47692;53.714;11.372;2023-12-07T10:56:28;101.50;;;26.27;;
61785;SDS011;47692;53.714;11.372;2023-12-07T10:59:00;107.57;;;26.70;;
61785;SDS011;47692;53.714;11.372;2023-12-07T11:01:25;112.15;;;28.65;;
61785;SDS011;47692;53.714;11.372;2023-12-07T11:03:51;100.82;;;24.20;;
61785;SDS011;47692;53.714;11.372;2023-12-07T11:06:19;97.18;;;23.88;;
61785;SDS011;47692;53.714;11.372;2023-12-07T11:08:46;96.32;;;25.77;;
61785;SDS011;47692;53.714;11.372;2023-12-07T11:11:26;97.32;;;26.45;;
61785;SDS011;47692;53.714;11.372;2023-12-07T11:14:09;112.07;;;26.70;;
61785;SDS011;47692;53.714;11.372;2023-12-07T11:16:41;91.50;;;23.75;;
61785;SDS011;47692;53.714;11.372;2023-12-07T11:22:01;92.82;;;26.85;;
61785;SDS011;47692;53.714;11.372;2023-12-07T11:24:27;97.80;;;25.23;;
61785;SDS011;47692;53.714;11.372;2023-12-07T11:26:53;90.60;;;23.38;;
61785;SDS011;47692;53.714;11.372;2023-12-07T11:29:25;94.22;;;24.23;;
61785;SDS011;47692;53.714;11.372;2023-12-07T11:32:01;92.88;;;25.08;;
61785;SDS011;47692;53.714;11.372;2023-12-07T11:34:38;101.25;;;26.50;;
61785;SDS011;47692;53.714;11.372;2023-12-07T11:37:04;104.88;;;25.70;;
61785;SDS011;47692;53.714;11.372;2023-12-07T11:39:34;97.20;;;26.92;;
61785;SDS011;47692;53.714;11.372;2023-12-07T11:42:07;90.47;;;24.13;;
61785;SDS011;47692;53.714;11.372;2023-12-07T11:44:38;96.97;;;25.40;;
61785;SDS011;47692;53.714;11.372;2023-12-07T11:47:06;96.80;;;24.58;;
61785;SDS011;47692;53.714;11.372;2023-12-07T11:49:32;95.40;;;24.60;;
61785;SDS011;47692;53.714;11.372;2023-12-07T11:51:58;100.28;;;25.33;;
61785;SDS011;47692;53.714;11.372;2023-12-07T11:54:24;94.10;;;24.67;;
61785;SDS011;47692;53.714;11.372;2023-12-07T11:56:56;80.28;;;21.48;;
61785;SDS011;47692;53.714;11.372;2023-12-07T11:59:22;99.85;;;26.92;;
61785;SDS011;47692;53.714;11.372;2023-12-07T12:01:51;83.75;;;24.75;;
61785;SDS011;47692;53.714;11.372;2023-12-07T12:04:16;92.57;;;22.92;;
61785;SDS011;47692;53.714;11.372;2023-12-07T12:06:45;94.95;;;23.90;;
61785;SDS011;47692;53.714;11.372;2023-12-07T12:09:14;104.72;;;25.35;;
61785;SDS011;47692;53.714;11.372;2023-12-07T12:11:45;90.07;;;23.65;;
61785;SDS011;47692;53.714;11.372;2023-12-07T12:14:14;106.57;;;26.02;;
61785;SDS011;47692;53.714;11.372;2023-12-07T12:16:41;88.90;;;23.80;;
61785;SDS011;47692;53.714;11.372;2023-12-07T12:19:07;87.95;;;23.67;;
61785;SDS011;47692;53.714;11.372;2023-12-07T12:21:37;92.57;;;22.88;;
61785;SDS011;47692;53.714;11.372;2023-12-07T12:24:04;95.70;;;24.02;;
61785;SDS011;47692;53.714;11.372;2023-12-07T12:26:36;85.95;;;23.40;;
61785;SDS011;47692;53.714;11.372;2023-12-07T12:29:04;91.97;;;25.50;;
61785;SDS011;47692;53.714;11.372;2023-12-07T12:31:30;88.10;;;23.95;;
61785;SDS011;47692;53.714;11.372;2023-12-07T12:33:55;87.95;;;26.38;;
61785;SDS011;47692;53.714;11.372;2023-12-07T12:36:21;104.72;;;25.40;;
61785;SDS011;47692;53.714;11.372;2023-12-07T12:38:48;81.15;;;21.55;;
61785;SDS011;47692;53.714;11.372;2023-12-07T12:41:18;89.85;;;23.52;;
61785;SDS011;47692;53.714;11.372;2023-12-07T12:43:44;107.70;;;24.25;;
61785;SDS011;47692;53.714;11.372;2023-12-07T12:46:10;94.18;;;24.27;;
61785;SDS011;47692;53.714;11.372;2023-12-07T12:48:36;98.32;;;24.50;;
61785;SDS011;47692;53.714;11.372;2023-12-07T12:51:08;89.88;;;24.50;;
61785;SDS011;47692;53.714;11.372;2023-12-07T12:53:41;84.20;;;23.45;;
61785;SDS011;47692;53.714;11.372;2023-12-07T12:56:10;79.93;;;21.98;;
61785;SDS011;47692;53.714;11.372;2023-12-07T12:58:35;83.72;;;21.15;;
61785;SDS011;47692;53.714;11.372;2023-12-07T13:01:01;86.93;;;22.75;;
61785;SDS011;47692;53.714;11.372;2023-12-07T13:03:28;81.70;;;22.15;;
61785;SDS011;47692;53.714;11.372;2023-12-07T13:05:54;91.47;;;26.42;;
61785;SDS011;47692;53.714;11.372;2023-12-07T13:08:19;86.60;;;23.02;;
61785;SDS011;47692;53.714;11.372;2023-12-07T13:10:44;84.15;;;23.27;;
61785;SDS011;47692;53.714;11.372;2023-12-07T13:13:10;82.03;;;22.95;;
61785;SDS011;47692;53.714;11.372;2023-12-07T13:15:35;80.97;;;23.67;;
61785;SDS011;47692;53.714;11.372;2023-12-07T13:18:01;95.00;;;23.15;;
61785;SDS011;47692;53.714;11.372;2023-12-07T13:20:26;99.32;;;24.65;;
61785;SDS011;47692;53.714;11.372;2023-12-07T13:22:51;94.95;;;25.33;;
61785;SDS011;47692;53.714;11.372;2023-12-07T13:25:17;89.80;;;23.67;;
61785;SDS011;47692;53.714;11.372;2023-12-07T13:27:42;81.38;;;23.42;;
61785;SDS011;47692;53.714;11.372;2023-12-07T13:30:08;77.40;;;22.92;;
61785;SDS011;47692;53.714;11.372;2023-12-07T13:32:34;84.85;;;24.40;;
61785;SDS011;47692;53.714;11.372;2023-12-07T13:35:02;84.00;;;21.90;;
61785;SDS011;47692;53.714;11.372;2023-12-07T13:37:28;88.25;;;22.60;;
61785;SDS011;47692;53.714;11.372;2023-12-07T13:39:53;70.18;;;22.40;;
61785;SDS011;47692;53.714;11.372;2023-12-07T13:42:23;73.05;;;22.25;;
61785;SDS011;47692;53.714;11.372;2023-12-07T13:44:52;76.20;;;22.77;;
61785;SDS011;47692;53.714;11.372;2023-12-07T13:47:22;68.28;;;21.23;;
61785;SDS011;47692;53.714;11.372;2023-12-07T13:49:51;79.00;;;24.13;;
61785;SDS011;47692;53.714;11.372;2023-12-07T13:52:16;84.45;;;23.83;;
61785;SDS011;47692;53.714;11.372;2023-12-07T13:54:42;91.30;;;24.65;;
61785;SDS011;47692;53.714;11.372;2023-12-07T13:57:08;98.05;;;25.50;;
61785;SDS011;47692;53.714;11.372;2023-12-07T13:59:33;90.32;;;25.98;;
61785;SDS011;47692;53.714;11.372;2023-12-07T14:01:58;88.68;;;25.27;;